sensor_id;sensor_type;location;lat;lon;timestamp;P1;durP1;ratioP1;P2;durP2;ratioP2
17820;SDS011;9035;42.554;23.188;2022-08-19T00:01:57;5.57;;;5.07;;
17820;SDS011;9035;42.554;23.188;2022-08-19T00:04:26;5.27;;;4.83;;
17820;SDS011;9035;42.554;23.188;2022-08-19T00:06:54;6.80;;;5.10;;
17820;SDS011;9035;42.554;23.188;2022-08-19T00:09:21;7.37;;;5.53;;
17820;SDS011;9035;42.554;23.188;2022-08-19T00:11:50;6.00;;;5.47;;
17820;SDS011;9035;42.554;23.188;2022-08-19T00:14:17;5.50;;;5.00;;
17820;SDS011;9035;42.554;23.188;2022-08-19T00:16:46;6.30;;;5.60;;
17820;SDS011;9035;42.554;23.188;2022-08-19T00:19:13;6.00;;;5.40;;
17820;SDS011;9035;42.554;23.188;2022-08-19T00:21:42;5.60;;;5.10;;
17820;SDS011;9035;42.554;23.188;2022-08-19T00:24:09;5.77;;;5.17;;
17820;SDS011;9035;42.554;23.188;2022-08-19T00:26:38;6.50;;;4.97;;
17820;SDS011;9035;42.554;23.188;2022-08-19T00:29:06;6.27;;;5.67;;
17820;SDS011;9035;42.554;23.188;2022-08-19T00:31:35;7.13;;;5.57;;
17820;SDS011;9035;42.554;23.188;2022-08-19T00:34:02;9.50;;;5.43;;
17820;SDS011;9035;42.554;23.188;2022-08-19T00:36:29;5.67;;;5.17;;
17820;SDS011;9035;42.554;23.188;2022-08-19T00:38:59;6.10;;;5.50;;
17820;SDS011;9035;42.554;23.188;2022-08-19T00:41:27;5.97;;;5.30;;
17820;SDS011;9035;42.554;23.188;2022-08-19T00:43:57;5.87;;;5.37;;
17820;SDS011;9035;42.554;23.188;2022-08-19T00:46:26;6.27;;;5.63;;
17820;SDS011;9035;42.554;23.188;2022-08-19T00:48:53;5.80;;;5.30;;
17820;SDS011;9035;42.554;23.188;2022-08-19T00:51:22;6.73;;;5.50;;
17820;SDS011;9035;42.554;23.188;2022-08-19T00:53:50;6.20;;;5.60;;
17820;SDS011;9035;42.554;23.188;2022-08-19T00:56:18;5.70;;;5.20;;
17820;SDS011;9035;42.554;23.188;2022-08-19T00:58:45;6.60;;;5.63;;
17820;SDS011;9035;42.554;23.188;2022-08-19T01:01:12;7.73;;;5.60;;
17820;SDS011;9035;42.554;23.188;2022-08-19T01:03:39;5.67;;;5.00;;
17820;SDS011;9035;42.554;23.188;2022-08-19T01:06:06;5.53;;;5.03;;
17820;SDS011;9035;42.554;23.188;2022-08-19T01:08:33;5.93;;;5.33;;
17820;SDS011;9035;42.554;23.188;2022-08-19T01:11:00;6.93;;;5.30;;
17820;SDS011;9035;42.554;23.188;2022-08-19T01:13:29;6.03;;;4.97;;
17820;SDS011;9035;42.554;23.188;2022-08-19T01:15:59;5.60;;;5.10;;
17820;SDS011;9035;42.554;23.188;2022-08-19T01:18:29;6.30;;;5.10;;
17820;SDS011;9035;42.554;23.188;2022-08-19T01:20:58;5.47;;;5.07;;
17820;SDS011;9035;42.554;23.188;2022-08-19T01:23:29;5.70;;;5.20;;
17820;SDS011;9035;42.554;23.188;2022-08-19T01:26:09;5.90;;;4.80;;
17820;SDS011;9035;42.554;23.188;2022-08-19T01:28:39;6.20;;;4.87;;
17820;SDS011;9035;42.554;23.188;2022-08-19T01:31:11;5.33;;;4.83;;
17820;SDS011;9035;42.554;23.188;2022-08-19T01:33:40;5.70;;;5.20;;
17820;SDS011;9035;42.554;23.188;2022-08-19T01:36:07;5.77;;;4.53;;
17820;SDS011;9035;42.554;23.188;2022-08-19T01:38:40;5.50;;;4.90;;
17820;SDS011;9035;42.554;23.188;2022-08-19T01:41:08;5.30;;;4.37;;
17820;SDS011;9035;42.554;23.188;2022-08-19T01:43:36;5.63;;;4.77;;
17820;SDS011;9035;42.554;23.188;2022-08-19T01:46:03;5.57;;;4.87;;
17820;SDS011;9035;42.554;23.188;2022-08-19T01:48:32;5.20;;;4.80;;
17820;SDS011;9035;42.554;23.188;2022-08-19T01:51:00;6.33;;;4.87;;
17820;SDS011;9035;42.554;23.188;2022-08-19T01:53:27;5.67;;;5.03;;
17820;SDS011;9035;42.554;23.188;2022-08-19T01:55:56;5.77;;;4.87;;
17820;SDS011;9035;42.554;23.188;2022-08-19T01:58:24;5.67;;;5.10;;
17820;SDS011;9035;42.554;23.188;2022-08-19T02:00:58;5.20;;;4.80;;
17820;SDS011;9035;42.554;23.188;2022-08-19T02:03:25;5.10;;;4.70;;
17820;SDS011;9035;42.554;23.188;2022-08-19T02:05:55;5.77;;;5.13;;
17820;SDS011;9035;42.554;23.188;2022-08-19T02:08:24;6.87;;;5.10;;
17820;SDS011;9035;42.554;23.188;2022-08-19T02:10:51;5.60;;;5.10;;
17820;SDS011;9035;42.554;23.188;2022-08-19T02:13:20;8.17;;;5.17;;
17820;SDS011;9035;42.554;23.188;2022-08-19T02:15:47;5.70;;;5.10;;
17820;SDS011;9035;42.554;23.188;2022-08-19T02:18:13;5.63;;;4.67;;
17820;SDS011;9035;42.554;23.188;2022-08-19T02:20:40;5.93;;;5.03;;
17820;SDS011;9035;42.554;23.188;2022-08-19T02:23:09;6.63;;;5.37;;
17820;SDS011;9035;42.554;23.188;2022-08-19T02:25:38;5.53;;;5.03;;
17820;SDS011;9035;42.554;23.188;2022-08-19T02:28:05;5.27;;;4.87;;
17820;SDS011;9035;42.554;23.188;2022-08-19T02:30:34;6.60;;;5.33;;
17820;SDS011;9035;42.554;23.188;2022-08-19T02:33:01;5.27;;;4.70;;
17820;SDS011;9035;42.554;23.188;2022-08-19T02:35:28;6.27;;;4.57;;
17820;SDS011;9035;42.554;23.188;2022-08-19T02:37:55;5.80;;;5.30;;
17820;SDS011;9035;42.554;23.188;2022-08-19T02:40:39;5.30;;;4.80;;
17820;SDS011;9035;42.554;23.188;2022-08-19T02:43:06;7.40;;;4.73;;
17820;SDS011;9035;42.554;23.188;2022-08-19T02:45:36;5.17;;;4.67;;
17820;SDS011;9035;42.554;23.188;2022-08-19T02:48:04;6.57;;;5.10;;
17820;SDS011;9035;42.554;23.188;2022-08-19T02:50:31;5.53;;;4.93;;
17820;SDS011;9035;42.554;23.188;2022-08-19T02:52:58;5.57;;;4.87;;
17820;SDS011;9035;42.554;23.188;2022-08-19T02:55:25;4.77;;;4.33;;
17820;SDS011;9035;42.554;23.188;2022-08-19T02:57:52;5.57;;;4.70;;
17820;SDS011;9035;42.554;23.188;2022-08-19T03:00:19;5.10;;;4.60;;
17820;SDS011;9035;42.554;23.188;2022-08-19T03:02:47;4.90;;;4.50;;
17820;SDS011;9035;42.554;23.188;2022-08-19T03:05:14;5.00;;;4.60;;
17820;SDS011;9035;42.554;23.188;2022-08-19T03:07:40;4.87;;;4.37;;
17820;SDS011;9035;42.554;23.188;2022-08-19T03:10:08;5.33;;;4.83;;
17820;SDS011;9035;42.554;23.188;2022-08-19T03:12:35;4.57;;;4.17;;
17820;SDS011;9035;42.554;23.188;2022-08-19T03:15:04;5.20;;;4.70;;
17820;SDS011;9035;42.554;23.188;2022-08-19T03:17:32;5.17;;;4.60;;
17820;SDS011;9035;42.554;23.188;2022-08-19T03:20:00;5.10;;;4.60;;
17820;SDS011;9035;42.554;23.188;2022-08-19T03:22:27;4.67;;;4.23;;
17820;SDS011;9035;42.554;23.188;2022-08-19T03:24:55;4.93;;;4.37;;
17820;SDS011;9035;42.554;23.188;2022-08-19T03:27:22;5.37;;;4.70;;
17820;SDS011;9035;42.554;23.188;2022-08-19T03:29:48;5.07;;;4.37;;
17820;SDS011;9035;42.554;23.188;2022-08-19T03:32:15;5.47;;;4.63;;
17820;SDS011;9035;42.554;23.188;2022-08-19T03:34:42;4.70;;;4.13;;
17820;SDS011;9035;42.554;23.188;2022-08-19T03:37:10;4.83;;;4.20;;
17820;SDS011;9035;42.554;23.188;2022-08-19T03:39:39;4.53;;;4.13;;
17820;SDS011;9035;42.554;23.188;2022-08-19T03:42:07;5.97;;;4.20;;
17820;SDS011;9035;42.554;23.188;2022-08-19T03:44:34;6.20;;;4.10;;
17820;SDS011;9035;42.554;23.188;2022-08-19T03:47:02;7.13;;;4.30;;
17820;SDS011;9035;42.554;23.188;2022-08-19T03:49:30;4.77;;;4.37;;
17820;SDS011;9035;42.554;23.188;2022-08-19T03:52:00;6.20;;;4.50;;
17820;SDS011;9035;42.554;23.188;2022-08-19T03:54:28;5.10;;;4.57;;
17820;SDS011;9035;42.554;23.188;2022-08-19T03:56:55;4.97;;;4.50;;
17820;SDS011;9035;42.554;23.188;2022-08-19T03:59:23;6.67;;;4.50;;
17820;SDS011;9035;42.554;23.188;2022-08-19T04:01:52;4.90;;;4.33;;
17820;SDS011;9035;42.554;23.188;2022-08-19T04:04:19;6.27;;;4.37;;
17820;SDS011;9035;42.554;23.188;2022-08-19T04:06:46;5.30;;;4.80;;
17820;SDS011;9035;42.554;23.188;2022-08-19T04:09:14;4.93;;;4.43;;
17820;SDS011;9035;42.554;23.188;2022-08-19T04:11:43;5.97;;;4.97;;
17820;SDS011;9035;42.554;23.188;2022-08-19T04:14:12;6.57;;;4.93;;
17820;SDS011;9035;42.554;23.188;2022-08-19T04:16:40;5.17;;;4.60;;
17820;SDS011;9035;42.554;23.188;2022-08-19T04:19:09;9.27;;;4.77;;
17820;SDS011;9035;42.554;23.188;2022-08-19T04:21:37;6.50;;;4.60;;
17820;SDS011;9035;42.554;23.188;2022-08-19T04:24:04;4.90;;;4.40;;
17820;SDS011;9035;42.554;23.188;2022-08-19T04:26:31;4.90;;;4.40;;
17820;SDS011;9035;42.554;23.188;2022-08-19T04:29:03;4.90;;;4.47;;
17820;SDS011;9035;42.554;23.188;2022-08-19T04:31:33;5.73;;;4.80;;
17820;SDS011;9035;42.554;23.188;2022-08-19T04:34:00;10.17;;;4.63;;
17820;SDS011;9035;42.554;23.188;2022-08-19T04:36:29;6.23;;;4.83;;
17820;SDS011;9035;42.554;23.188;2022-08-19T04:38:58;5.77;;;4.47;;
17820;SDS011;9035;42.554;23.188;2022-08-19T04:41:27;4.73;;;4.33;;
17820;SDS011;9035;42.554;23.188;2022-08-19T04:44:13;4.90;;;4.40;;
17820;SDS011;9035;42.554;23.188;2022-08-19T04:46:43;4.67;;;4.27;;
17820;SDS011;9035;42.554;23.188;2022-08-19T04:49:10;4.90;;;4.50;;
17820;SDS011;9035;42.554;23.188;2022-08-19T04:51:39;4.60;;;4.20;;
17820;SDS011;9035;42.554;23.188;2022-08-19T04:54:07;5.37;;;4.87;;
17820;SDS011;9035;42.554;23.188;2022-08-19T04:56:35;5.87;;;4.60;;
17820;SDS011;9035;42.554;23.188;2022-08-19T04:59:02;5.07;;;4.57;;
17820;SDS011;9035;42.554;23.188;2022-08-19T05:01:31;5.00;;;4.50;;
17820;SDS011;9035;42.554;23.188;2022-08-19T05:03:59;6.27;;;4.67;;
17820;SDS011;9035;42.554;23.188;2022-08-19T05:06:27;5.30;;;4.43;;
17820;SDS011;9035;42.554;23.188;2022-08-19T05:08:58;6.23;;;5.00;;
17820;SDS011;9035;42.554;23.188;2022-08-19T05:11:25;5.70;;;4.47;;
17820;SDS011;9035;42.554;23.188;2022-08-19T05:13:54;5.67;;;4.93;;
17820;SDS011;9035;42.554;23.188;2022-08-19T05:16:22;4.60;;;4.20;;
17820;SDS011;9035;42.554;23.188;2022-08-19T05:18:51;6.80;;;4.83;;
17820;SDS011;9035;42.554;23.188;2022-08-19T05:21:36;5.93;;;4.73;;
17820;SDS011;9035;42.554;23.188;2022-08-19T05:24:22;5.53;;;4.97;;
17820;SDS011;9035;42.554;23.188;2022-08-19T05:26:50;5.03;;;4.30;;
17820;SDS011;9035;42.554;23.188;2022-08-19T05:29:21;5.00;;;4.43;;
17820;SDS011;9035;42.554;23.188;2022-08-19T05:31:49;4.90;;;4.50;;
17820;SDS011;9035;42.554;23.188;2022-08-19T05:34:19;7.20;;;4.63;;
17820;SDS011;9035;42.554;23.188;2022-08-19T05:36:50;4.83;;;4.27;;
17820;SDS011;9035;42.554;23.188;2022-08-19T05:39:20;5.23;;;4.70;;
17820;SDS011;9035;42.554;23.188;2022-08-19T05:41:48;5.00;;;4.57;;
17820;SDS011;9035;42.554;23.188;2022-08-19T05:44:16;5.90;;;5.30;;
17820;SDS011;9035;42.554;23.188;2022-08-19T05:46:43;4.90;;;4.50;;
17820;SDS011;9035;42.554;23.188;2022-08-19T05:49:12;4.70;;;4.30;;
17820;SDS011;9035;42.554;23.188;2022-08-19T05:51:41;7.73;;;4.80;;
17820;SDS011;9035;42.554;23.188;2022-08-19T05:54:09;4.90;;;4.50;;
17820;SDS011;9035;42.554;23.188;2022-08-19T05:56:38;4.90;;;4.13;;
17820;SDS011;9035;42.554;23.188;2022-08-19T05:59:06;4.93;;;4.43;;
17820;SDS011;9035;42.554;23.188;2022-08-19T06:01:34;5.43;;;4.93;;
17820;SDS011;9035;42.554;23.188;2022-08-19T06:04:03;5.80;;;5.20;;
17820;SDS011;9035;42.554;23.188;2022-08-19T06:06:30;4.80;;;4.23;;
17820;SDS011;9035;42.554;23.188;2022-08-19T06:09:00;6.17;;;4.50;;
17820;SDS011;9035;42.554;23.188;2022-08-19T06:11:31;5.50;;;4.60;;
17820;SDS011;9035;42.554;23.188;2022-08-19T06:14:02;5.97;;;4.43;;
17820;SDS011;9035;42.554;23.188;2022-08-19T06:16:33;4.80;;;4.40;;
17820;SDS011;9035;42.554;23.188;2022-08-19T06:19:01;5.37;;;4.87;;
17820;SDS011;9035;42.554;23.188;2022-08-19T06:21:31;5.50;;;5.00;;
17820;SDS011;9035;42.554;23.188;2022-08-19T06:23:58;4.90;;;4.40;;
17820;SDS011;9035;42.554;23.188;2022-08-19T06:26:27;6.47;;;4.37;;
17820;SDS011;9035;42.554;23.188;2022-08-19T06:28:54;4.37;;;3.97;;
17820;SDS011;9035;42.554;23.188;2022-08-19T06:31:23;5.83;;;4.10;;
17820;SDS011;9035;42.554;23.188;2022-08-19T06:33:53;6.17;;;4.53;;
17820;SDS011;9035;42.554;23.188;2022-08-19T06:36:20;6.33;;;4.63;;
17820;SDS011;9035;42.554;23.188;2022-08-19T06:38:52;7.43;;;5.20;;
17820;SDS011;9035;42.554;23.188;2022-08-19T06:41:20;6.00;;;5.47;;
17820;SDS011;9035;42.554;23.188;2022-08-19T06:43:47;5.87;;;5.07;;
17820;SDS011;9035;42.554;23.188;2022-08-19T06:46:14;6.97;;;6.13;;
17820;SDS011;9035;42.554;23.188;2022-08-19T06:48:42;7.85;;;6.32;;
17820;SDS011;9035;42.554;23.188;2022-08-19T06:51:09;12.33;;;6.43;;
17820;SDS011;9035;42.554;23.188;2022-08-19T06:53:36;7.70;;;6.83;;
17820;SDS011;9035;42.554;23.188;2022-08-19T06:56:04;7.30;;;6.60;;
17820;SDS011;9035;42.554;23.188;2022-08-19T06:58:33;6.93;;;5.80;;
17820;SDS011;9035;42.554;23.188;2022-08-19T07:01:00;7.83;;;6.53;;
17820;SDS011;9035;42.554;23.188;2022-08-19T07:03:29;9.83;;;6.20;;
17820;SDS011;9035;42.554;23.188;2022-08-19T07:05:57;11.27;;;6.23;;
17820;SDS011;9035;42.554;23.188;2022-08-19T07:08:28;5.93;;;4.93;;
17820;SDS011;9035;42.554;23.188;2022-08-19T07:10:54;10.80;;;5.60;;
17820;SDS011;9035;42.554;23.188;2022-08-19T07:13:21;7.30;;;4.82;;
17820;SDS011;9035;42.554;23.188;2022-08-19T07:15:50;5.30;;;4.80;;
17820;SDS011;9035;42.554;23.188;2022-08-19T07:18:17;6.30;;;4.95;;
17820;SDS011;9035;42.554;23.188;2022-08-19T07:20:45;7.43;;;5.32;;
17820;SDS011;9035;42.554;23.188;2022-08-19T07:23:12;7.23;;;4.63;;
17820;SDS011;9035;42.554;23.188;2022-08-19T07:25:39;12.10;;;4.90;;
17820;SDS011;9035;42.554;23.188;2022-08-19T07:28:06;6.57;;;5.57;;
17820;SDS011;9035;42.554;23.188;2022-08-19T07:30:35;10.05;;;7.55;;
17820;SDS011;9035;42.554;23.188;2022-08-19T07:33:06;5.97;;;4.70;;
17820;SDS011;9035;42.554;23.188;2022-08-19T07:35:33;7.63;;;4.95;;
17820;SDS011;9035;42.554;23.188;2022-08-19T07:38:00;5.53;;;5.03;;
17820;SDS011;9035;42.554;23.188;2022-08-19T07:40:29;8.10;;;5.07;;
17820;SDS011;9035;42.554;23.188;2022-08-19T07:42:56;5.63;;;4.53;;
17820;SDS011;9035;42.554;23.188;2022-08-19T07:45:23;5.63;;;4.53;;
17820;SDS011;9035;42.554;23.188;2022-08-19T07:47:50;4.93;;;4.50;;
17820;SDS011;9035;42.554;23.188;2022-08-19T07:50:19;5.75;;;5.03;;
17820;SDS011;9035;42.554;23.188;2022-08-19T07:52:48;6.53;;;4.90;;
17820;SDS011;9035;42.554;23.188;2022-08-19T07:55:16;7.85;;;4.88;;
17820;SDS011;9035;42.554;23.188;2022-08-19T07:57:45;8.10;;;4.60;;
17820;SDS011;9035;42.554;23.188;2022-08-19T08:00:13;4.82;;;4.43;;
17820;SDS011;9035;42.554;23.188;2022-08-19T08:02:41;6.45;;;4.70;;
17820;SDS011;9035;42.554;23.188;2022-08-19T08:05:08;6.53;;;5.32;;
17820;SDS011;9035;42.554;23.188;2022-08-19T08:07:54;5.85;;;5.18;;
17820;SDS011;9035;42.554;23.188;2022-08-19T08:10:39;5.15;;;4.72;;
17820;SDS011;9035;42.554;23.188;2022-08-19T08:13:06;5.68;;;4.60;;
17820;SDS011;9035;42.554;23.188;2022-08-19T08:15:33;5.53;;;4.95;;
17820;SDS011;9035;42.554;23.188;2022-08-19T08:18:02;9.57;;;4.63;;
17820;SDS011;9035;42.554;23.188;2022-08-19T08:20:29;5.80;;;5.30;;
17820;SDS011;9035;42.554;23.188;2022-08-19T08:22:57;5.88;;;5.20;;
17820;SDS011;9035;42.554;23.188;2022-08-19T08:25:41;7.32;;;5.05;;
17820;SDS011;9035;42.554;23.188;2022-08-19T08:28:07;6.35;;;4.82;;
17820;SDS011;9035;42.554;23.188;2022-08-19T08:30:35;8.88;;;4.95;;
17820;SDS011;9035;42.554;23.188;2022-08-19T08:33:04;5.65;;;5.15;;
17820;SDS011;9035;42.554;23.188;2022-08-19T08:35:31;5.65;;;5.15;;
17820;SDS011;9035;42.554;23.188;2022-08-19T08:37:59;7.65;;;5.20;;
17820;SDS011;9035;42.554;23.188;2022-08-19T08:40:30;5.53;;;5.03;;
17820;SDS011;9035;42.554;23.188;2022-08-19T08:43:06;7.38;;;5.22;;
17820;SDS011;9035;42.554;23.188;2022-08-19T08:45:40;4.97;;;4.47;;
17820;SDS011;9035;42.554;23.188;2022-08-19T08:48:15;6.15;;;4.82;;
17820;SDS011;9035;42.554;23.188;2022-08-19T08:50:47;7.95;;;5.10;;
17820;SDS011;9035;42.554;23.188;2022-08-19T08:53:17;5.97;;;5.18;;
17820;SDS011;9035;42.554;23.188;2022-08-19T08:55:45;6.30;;;5.03;;
17820;SDS011;9035;42.554;23.188;2022-08-19T08:58:14;5.57;;;4.70;;
17820;SDS011;9035;42.554;23.188;2022-08-19T09:00:48;7.35;;;5.20;;
17820;SDS011;9035;42.554;23.188;2022-08-19T09:03:17;5.20;;;4.80;;
17820;SDS011;9035;42.554;23.188;2022-08-19T09:05:48;6.40;;;5.28;;
17820;SDS011;9035;42.554;23.188;2022-08-19T09:08:28;6.20;;;5.00;;
17820;SDS011;9035;42.554;23.188;2022-08-19T09:11:06;9.45;;;5.75;;
17820;SDS011;9035;42.554;23.188;2022-08-19T09:13:37;5.93;;;5.32;;
17820;SDS011;9035;42.554;23.188;2022-08-19T09:16:12;6.38;;;4.95;;
17820;SDS011;9035;42.554;23.188;2022-08-19T09:18:42;8.25;;;5.13;;
17820;SDS011;9035;42.554;23.188;2022-08-19T09:21:12;9.85;;;5.38;;
17820;SDS011;9035;42.554;23.188;2022-08-19T09:23:41;7.40;;;4.93;;
17820;SDS011;9035;42.554;23.188;2022-08-19T09:26:09;8.73;;;5.00;;
17820;SDS011;9035;42.554;23.188;2022-08-19T09:28:38;5.85;;;4.93;;
17820;SDS011;9035;42.554;23.188;2022-08-19T09:31:08;10.20;;;4.85;;
17820;SDS011;9035;42.554;23.188;2022-08-19T09:33:35;6.43;;;4.78;;
17820;SDS011;9035;42.554;23.188;2022-08-19T09:36:03;9.88;;;4.53;;
17820;SDS011;9035;42.554;23.188;2022-08-19T09:38:32;7.05;;;4.85;;
17820;SDS011;9035;42.554;23.188;2022-08-19T09:41:04;5.22;;;4.40;;
17820;SDS011;9035;42.554;23.188;2022-08-19T09:43:32;11.27;;;4.90;;
17820;SDS011;9035;42.554;23.188;2022-08-19T09:46:01;5.07;;;4.38;;
17820;SDS011;9035;42.554;23.188;2022-08-19T09:48:30;6.78;;;4.60;;
17820;SDS011;9035;42.554;23.188;2022-08-19T09:51:02;7.47;;;4.85;;
17820;SDS011;9035;42.554;23.188;2022-08-19T09:53:30;6.05;;;4.97;;
17820;SDS011;9035;42.554;23.188;2022-08-19T09:55:56;7.40;;;5.70;;
17820;SDS011;9035;42.554;23.188;2022-08-19T09:58:24;5.65;;;4.75;;
17820;SDS011;9035;42.554;23.188;2022-08-19T10:00:52;5.78;;;4.72;;
17820;SDS011;9035;42.554;23.188;2022-08-19T10:03:19;6.80;;;4.85;;
17820;SDS011;9035;42.554;23.188;2022-08-19T10:05:46;5.45;;;4.70;;
17820;SDS011;9035;42.554;23.188;2022-08-19T10:08:17;5.38;;;4.60;;
17820;SDS011;9035;42.554;23.188;2022-08-19T10:10:45;8.35;;;5.00;;
17820;SDS011;9035;42.554;23.188;2022-08-19T10:13:12;7.05;;;4.85;;
17820;SDS011;9035;42.554;23.188;2022-08-19T10:15:42;7.47;;;4.65;;
17820;SDS011;9035;42.554;23.188;2022-08-19T10:18:10;7.95;;;4.80;;
17820;SDS011;9035;42.554;23.188;2022-08-19T10:20:37;5.13;;;4.00;;
17820;SDS011;9035;42.554;23.188;2022-08-19T10:23:04;7.75;;;3.97;;
17820;SDS011;9035;42.554;23.188;2022-08-19T10:25:31;7.10;;;4.22;;
17820;SDS011;9035;42.554;23.188;2022-08-19T10:27:59;5.82;;;4.10;;
17820;SDS011;9035;42.554;23.188;2022-08-19T10:30:25;7.45;;;4.20;;
17820;SDS011;9035;42.554;23.188;2022-08-19T10:32:54;7.72;;;4.10;;
17820;SDS011;9035;42.554;23.188;2022-08-19T10:35:21;5.65;;;4.13;;
17820;SDS011;9035;42.554;23.188;2022-08-19T10:37:47;6.50;;;3.83;;
17820;SDS011;9035;42.554;23.188;2022-08-19T10:40:14;6.45;;;3.53;;
17820;SDS011;9035;42.554;23.188;2022-08-19T10:42:41;18.83;;;4.65;;
17820;SDS011;9035;42.554;23.188;2022-08-19T10:45:08;4.90;;;3.60;;
17820;SDS011;9035;42.554;23.188;2022-08-19T10:47:36;4.68;;;3.50;;
17820;SDS011;9035;42.554;23.188;2022-08-19T10:50:05;4.20;;;3.75;;
17820;SDS011;9035;42.554;23.188;2022-08-19T10:52:50;4.88;;;3.88;;
17820;SDS011;9035;42.554;23.188;2022-08-19T10:55:18;5.35;;;4.45;;
17820;SDS011;9035;42.554;23.188;2022-08-19T10:58:09;7.55;;;4.88;;
17820;SDS011;9035;42.554;23.188;2022-08-19T11:00:37;7.35;;;4.38;;
17820;SDS011;9035;42.554;23.188;2022-08-19T11:03:05;7.13;;;4.20;;
17820;SDS011;9035;42.554;23.188;2022-08-19T11:05:33;5.43;;;4.40;;
17820;SDS011;9035;42.554;23.188;2022-08-19T11:08:00;7.07;;;4.65;;
17820;SDS011;9035;42.554;23.188;2022-08-19T11:10:27;6.55;;;4.55;;
17820;SDS011;9035;42.554;23.188;2022-08-19T11:12:54;4.90;;;3.97;;
17820;SDS011;9035;42.554;23.188;2022-08-19T11:15:21;7.75;;;4.47;;
17820;SDS011;9035;42.554;23.188;2022-08-19T11:17:48;5.32;;;4.25;;
17820;SDS011;9035;42.554;23.188;2022-08-19T11:20:17;6.43;;;4.28;;
17820;SDS011;9035;42.554;23.188;2022-08-19T11:22:45;9.90;;;4.70;;
17820;SDS011;9035;42.554;23.188;2022-08-19T11:25:12;10.13;;;4.35;;
17820;SDS011;9035;42.554;23.188;2022-08-19T11:27:39;7.43;;;4.70;;
17820;SDS011;9035;42.554;23.188;2022-08-19T11:30:08;5.22;;;4.35;;
17820;SDS011;9035;42.554;23.188;2022-08-19T11:32:36;6.45;;;4.30;;
17820;SDS011;9035;42.554;23.188;2022-08-19T11:35:03;6.10;;;4.28;;
17820;SDS011;9035;42.554;23.188;2022-08-19T11:37:30;5.95;;;4.18;;
17820;SDS011;9035;42.554;23.188;2022-08-19T11:39:59;6.70;;;4.60;;
17820;SDS011;9035;42.554;23.188;2022-08-19T11:42:26;6.57;;;4.68;;
17820;SDS011;9035;42.554;23.188;2022-08-19T11:45:10;6.10;;;4.38;;
17820;SDS011;9035;42.554;23.188;2022-08-19T11:47:37;6.25;;;4.28;;
17820;SDS011;9035;42.554;23.188;2022-08-19T11:50:05;5.80;;;4.47;;
17820;SDS011;9035;42.554;23.188;2022-08-19T11:52:32;5.75;;;4.47;;
17820;SDS011;9035;42.554;23.188;2022-08-19T11:55:00;6.45;;;4.38;;
17820;SDS011;9035;42.554;23.188;2022-08-19T11:57:27;10.00;;;4.45;;
17820;SDS011;9035;42.554;23.188;2022-08-19T11:59:54;8.55;;;4.72;;
17820;SDS011;9035;42.554;23.188;2022-08-19T12:02:21;7.10;;;4.50;;
17820;SDS011;9035;42.554;23.188;2022-08-19T12:04:48;29.55;;;6.30;;
17820;SDS011;9035;42.554;23.188;2022-08-19T12:07:15;4.57;;;4.18;;
17820;SDS011;9035;42.554;23.188;2022-08-19T12:09:42;7.15;;;4.78;;
17820;SDS011;9035;42.554;23.188;2022-08-19T12:12:10;8.82;;;4.28;;
17820;SDS011;9035;42.554;23.188;2022-08-19T12:14:37;5.72;;;4.25;;
17820;SDS011;9035;42.554;23.188;2022-08-19T12:17:04;5.93;;;4.28;;
17820;SDS011;9035;42.554;23.188;2022-08-19T12:19:32;5.20;;;4.45;;
17820;SDS011;9035;42.554;23.188;2022-08-19T12:22:00;7.15;;;4.80;;
17820;SDS011;9035;42.554;23.188;2022-08-19T12:24:29;4.93;;;4.18;;
17820;SDS011;9035;42.554;23.188;2022-08-19T12:26:57;8.10;;;4.10;;
17820;SDS011;9035;42.554;23.188;2022-08-19T12:29:28;5.40;;;4.22;;
17820;SDS011;9035;42.554;23.188;2022-08-19T12:31:55;6.60;;;3.70;;
17820;SDS011;9035;42.554;23.188;2022-08-19T12:34:26;4.65;;;4.05;;
17820;SDS011;9035;42.554;23.188;2022-08-19T12:36:55;9.02;;;3.92;;
17820;SDS011;9035;42.554;23.188;2022-08-19T12:39:22;4.68;;;3.50;;
17820;SDS011;9035;42.554;23.188;2022-08-19T12:41:48;5.55;;;3.75;;
17820;SDS011;9035;42.554;23.188;2022-08-19T12:44:15;5.88;;;3.72;;
17820;SDS011;9035;42.554;23.188;2022-08-19T12:46:43;4.03;;;3.42;;
17820;SDS011;9035;42.554;23.188;2022-08-19T12:49:10;6.25;;;3.60;;
17820;SDS011;9035;42.554;23.188;2022-08-19T12:51:37;7.05;;;3.78;;
17820;SDS011;9035;42.554;23.188;2022-08-19T12:54:03;4.20;;;3.55;;
17820;SDS011;9035;42.554;23.188;2022-08-19T12:56:31;5.72;;;3.47;;
17820;SDS011;9035;42.554;23.188;2022-08-19T12:59:00;5.00;;;3.75;;
17820;SDS011;9035;42.554;23.188;2022-08-19T13:01:27;8.98;;;3.30;;
17820;SDS011;9035;42.554;23.188;2022-08-19T13:03:59;6.53;;;3.60;;
17820;SDS011;9035;42.554;23.188;2022-08-19T13:06:25;11.48;;;3.67;;
17820;SDS011;9035;42.554;23.188;2022-08-19T13:08:53;6.88;;;3.63;;
17820;SDS011;9035;42.554;23.188;2022-08-19T13:11:20;8.35;;;3.80;;
17820;SDS011;9035;42.554;23.188;2022-08-19T13:13:49;6.18;;;4.00;;
17820;SDS011;9035;42.554;23.188;2022-08-19T13:16:17;5.53;;;3.45;;
17820;SDS011;9035;42.554;23.188;2022-08-19T13:18:45;6.90;;;3.63;;
17820;SDS011;9035;42.554;23.188;2022-08-19T13:21:14;4.68;;;3.42;;
17820;SDS011;9035;42.554;23.188;2022-08-19T13:23:41;7.22;;;3.70;;
17820;SDS011;9035;42.554;23.188;2022-08-19T13:26:10;7.78;;;3.65;;
17820;SDS011;9035;42.554;23.188;2022-08-19T13:28:38;5.60;;;3.65;;
17820;SDS011;9035;42.554;23.188;2022-08-19T13:31:23;3.67;;;3.28;;
17820;SDS011;9035;42.554;23.188;2022-08-19T13:34:15;9.07;;;4.18;;
17820;SDS011;9035;42.554;23.188;2022-08-19T13:36:45;5.68;;;3.50;;
17820;SDS011;9035;42.554;23.188;2022-08-19T13:39:12;7.50;;;3.33;;
17820;SDS011;9035;42.554;23.188;2022-08-19T13:41:42;10.95;;;4.20;;
17820;SDS011;9035;42.554;23.188;2022-08-19T13:44:12;4.85;;;3.78;;
17820;SDS011;9035;42.554;23.188;2022-08-19T13:46:40;5.95;;;3.63;;
17820;SDS011;9035;42.554;23.188;2022-08-19T13:49:11;7.00;;;3.97;;
17820;SDS011;9035;42.554;23.188;2022-08-19T13:51:40;4.78;;;3.50;;
17820;SDS011;9035;42.554;23.188;2022-08-19T13:54:09;6.05;;;4.00;;
17820;SDS011;9035;42.554;23.188;2022-08-19T13:56:39;8.48;;;4.30;;
17820;SDS011;9035;42.554;23.188;2022-08-19T13:59:07;4.75;;;4.18;;
17820;SDS011;9035;42.554;23.188;2022-08-19T14:01:33;5.15;;;3.80;;
17820;SDS011;9035;42.554;23.188;2022-08-19T14:04:00;4.55;;;3.80;;
17820;SDS011;9035;42.554;23.188;2022-08-19T14:06:27;10.55;;;4.10;;
17820;SDS011;9035;42.554;23.188;2022-08-19T14:08:54;7.70;;;3.75;;
17820;SDS011;9035;42.554;23.188;2022-08-19T14:11:22;5.63;;;3.80;;
17820;SDS011;9035;42.554;23.188;2022-08-19T14:13:49;7.95;;;3.53;;
17820;SDS011;9035;42.554;23.188;2022-08-19T14:16:15;6.40;;;3.70;;
17820;SDS011;9035;42.554;23.188;2022-08-19T14:18:42;5.35;;;3.85;;
17820;SDS011;9035;42.554;23.188;2022-08-19T14:21:14;4.55;;;3.65;;
17820;SDS011;9035;42.554;23.188;2022-08-19T14:23:42;7.07;;;3.58;;
17820;SDS011;9035;42.554;23.188;2022-08-19T14:26:10;6.22;;;3.90;;
17820;SDS011;9035;42.554;23.188;2022-08-19T14:28:41;4.97;;;3.55;;
17820;SDS011;9035;42.554;23.188;2022-08-19T14:31:08;4.80;;;3.67;;
17820;SDS011;9035;42.554;23.188;2022-08-19T14:33:35;6.68;;;3.55;;
17820;SDS011;9035;42.554;23.188;2022-08-19T14:36:03;4.88;;;4.00;;
17820;SDS011;9035;42.554;23.188;2022-08-19T14:38:30;6.30;;;3.20;;
17820;SDS011;9035;42.554;23.188;2022-08-19T14:41:11;5.72;;;3.70;;
17820;SDS011;9035;42.554;23.188;2022-08-19T14:43:42;6.40;;;4.05;;
17820;SDS011;9035;42.554;23.188;2022-08-19T14:46:11;9.50;;;3.92;;
17820;SDS011;9035;42.554;23.188;2022-08-19T14:48:38;5.90;;;3.53;;
17820;SDS011;9035;42.554;23.188;2022-08-19T14:51:05;38.70;;;6.05;;
17820;SDS011;9035;42.554;23.188;2022-08-19T14:53:32;9.55;;;3.58;;
17820;SDS011;9035;42.554;23.188;2022-08-19T14:56:00;5.30;;;3.47;;
17820;SDS011;9035;42.554;23.188;2022-08-19T14:58:27;6.63;;;3.80;;